Time;durP1;ratioP1;P1;durP2;ratioP2;P2;SDS_P1;SDS_P2;PMS_P1;PMS_P2;Temp;Humidity;BMP_temperature;BMP_pressure;BME280_temperature;BME280_humidity;BME280_pressure;Samples;Min_cycle;Max_cycle;Signal;HPM_P1;HPM_P2
2022/11/19 00:01:48;;;;;;;2.10;1.23;;;6.90;99.90;;;;;;6148103;23;20229;-71
2022/11/19 00:04:15;;;;;;;3.50;1.42;;;6.90;99.90;;;;;;6132324;23;20195;-71
2022/11/19 00:06:42;;;;;;;1.25;1.15;;;7.10;99.90;;;;;;6138538;23;20190;-71
2022/11/19 00:09:13;;;;;;;1.90;1.70;;;6.90;99.90;;;;;;6147829;23;20191;-71
2022/11/19 00:14:26;;;;;;;1.75;1.55;;;6.90;99.90;;;;;;6124490;23;20191;-71
2022/11/19 00:16:53;;;;;;;3.08;1.27;;;6.90;99.90;;;;;;6137651;23;20218;-71
2022/11/19 00:19:20;;;;;;;2.05;1.65;;;6.90;99.90;;;;;;6122706;23;20222;-71
2022/11/19 00:21:48;;;;;;;3.15;1.98;;;6.90;99.90;;;;;;6141244;23;20273;-71
2022/11/19 00:24:15;;;;;;;3.63;1.65;;;6.90;99.90;;;;;;6145454;23;20251;-71
2022/11/19 00:26:42;;;;;;;2.40;2.20;;;6.90;99.90;;;;;;6139645;23;20195;-71
2022/11/19 00:29:11;;;;;;;1.75;1.65;;;7.00;99.90;;;;;;6146924;23;20301;-71
2022/11/19 00:31:40;;;;;;;1.98;1.70;;;7.00;99.90;;;;;;6141194;23;20202;-72
2022/11/19 00:34:07;;;;;;;2.67;1.90;;;7.00;99.90;;;;;;6119250;23;20191;-71
2022/11/19 00:36:34;;;;;;;3.25;1.90;;;7.00;99.90;;;;;;6133272;23;20191;-71
2022/11/19 00:39:01;;;;;;;1.98;1.83;;;7.00;99.90;;;;;;6126324;23;20194;-71
2022/11/19 00:41:29;;;;;;;2.88;2.28;;;7.00;99.90;;;;;;6145457;23;20278;-71
2022/11/19 00:43:56;;;;;;;4.00;2.42;;;7.10;99.90;;;;;;6136122;23;20200;-71
2022/11/19 00:46:26;;;;;;;2.30;2.10;;;7.10;99.90;;;;;;6140679;23;20547;-72
2022/11/19 00:48:56;;;;;;;2.17;1.83;;;7.10;99.90;;;;;;6138198;23;20275;-71
2022/11/19 00:51:26;;;;;;;2.05;1.85;;;7.20;99.90;;;;;;6142658;23;20195;-71
2022/11/19 00:53:53;;;;;;;3.35;2.10;;;7.20;99.90;;;;;;6141945;23;20217;-71
2022/11/19 00:56:22;;;;;;;2.72;2.20;;;7.30;99.90;;;;;;6121996;23;20829;-71
2022/11/19 00:58:51;;;;;;;2.22;2.03;;;7.30;99.90;;;;;;6138087;23;20863;-72
2022/11/19 01:01:22;;;;;;;2.00;1.80;;;7.30;99.90;;;;;;6131710;23;20192;-71
2022/11/19 01:03:49;;;;;;;1.80;1.70;;;7.30;99.90;;;;;;6144505;23;20199;-72
2022/11/19 01:06:20;;;;;;;1.65;1.55;;;7.30;99.90;;;;;;6143292;23;20190;-72
2022/11/19 01:08:48;;;;;;;2.15;1.95;;;7.30;99.90;;;;;;6145576;23;20269;-71
2022/11/19 01:11:18;;;;;;;1.95;1.63;;;7.30;99.90;;;;;;6144274;23;20206;-71
2022/11/19 01:13:45;;;;;;;1.40;1.27;;;7.30;99.90;;;;;;6137035;23;20189;-71
2022/11/19 01:16:14;;;;;;;4.05;1.67;;;7.30;99.90;;;;;;6140267;23;20191;-71
2022/11/19 01:18:43;;;;;;;2.47;1.50;;;7.30;99.90;;;;;;6137147;23;20222;-71
2022/11/19 01:21:12;;;;;;;1.88;1.50;;;7.40;99.90;;;;;;6097344;23;20231;-71
2022/11/19 01:23:42;;;;;;;1.40;1.30;;;7.40;99.90;;;;;;6142273;23;20292;-71
2022/11/19 01:26:11;;;;;;;1.73;1.63;;;7.40;99.90;;;;;;6119746;23;20196;-71
2022/11/19 01:28:38;;;;;;;1.60;1.45;;;7.40;99.90;;;;;;6144341;23;20200;-71
2022/11/19 01:31:08;;;;;;;2.05;1.60;;;7.40;99.90;;;;;;6148551;23;20298;-71
2022/11/19 01:33:35;;;;;;;1.90;1.70;;;7.40;99.90;;;;;;6146744;23;20597;-72
2022/11/19 01:36:04;;;;;;;2.67;2.00;;;7.40;99.90;;;;;;6146294;23;20207;-71
2022/11/19 01:38:32;;;;;;;2.47;1.95;;;7.40;99.90;;;;;;6129580;23;20221;-71
2022/11/19 01:41:01;;;;;;;2.15;1.90;;;7.40;99.90;;;;;;6119305;23;20587;-72
2022/11/19 01:43:42;;;;;;;1.90;1.80;;;7.40;99.90;;;;;;6136520;23;20195;-71
2022/11/19 01:46:10;;;;;;;1.95;1.70;;;7.40;99.90;;;;;;6148891;23;20207;-71
2022/11/19 01:48:40;;;;;;;1.92;1.83;;;7.40;99.90;;;;;;6139404;23;20195;-71
2022/11/19 01:51:11;;;;;;;2.42;1.75;;;7.40;99.90;;;;;;6147664;23;20188;-71
2022/11/19 01:53:40;;;;;;;3.55;2.25;;;7.40;99.90;;;;;;6142117;23;20204;-71
2022/11/19 01:56:09;;;;;;;2.15;1.85;;;7.30;99.90;;;;;;6146042;23;20767;-71
2022/11/19 01:58:40;;;;;;;3.35;2.35;;;7.30;99.90;;;;;;6124875;23;20315;-71
2022/11/19 02:01:08;;;;;;;2.30;2.10;;;7.30;99.90;;;;;;6143414;23;20221;-71
2022/11/19 02:03:37;;;;;;;2.67;2.00;;;7.30;99.90;;;;;;6137358;23;20270;-71
2022/11/19 02:06:05;;;;;;;2.42;2.22;;;7.40;99.90;;;;;;6144273;23;20198;-71
2022/11/19 02:08:41;;;;;;;2.00;1.80;;;7.30;99.90;;;;;;6130828;23;20237;-72
2022/11/19 02:11:43;;;;;;;2.35;2.25;;;7.30;99.90;;;;;;6134488;23;20190;-71
2022/11/19 02:14:24;;;;;;;2.20;2.00;;;7.20;99.90;;;;;;6099893;23;20196;-71
2022/11/19 02:17:02;;;;;;;2.30;2.10;;;7.20;99.90;;;;;;6139383;23;20271;-71
2022/11/19 02:19:52;;;;;;;2.40;1.88;;;7.10;99.90;;;;;;6147028;23;20186;-72
2022/11/19 02:22:36;;;;;;;4.32;1.60;;;7.10;99.90;;;;;;6143727;23;20618;-71
2022/11/19 02:25:14;;;;;;;1.80;1.70;;;7.10;99.90;;;;;;6141686;23;20244;-71
2022/11/19 02:28:26;;;;;;;1.80;1.70;;;7.10;99.90;;;;;;6149697;23;20186;-71
2022/11/19 02:31:03;;;;;;;2.17;1.98;;;7.10;99.90;;;;;;5992507;23;20567;-71
2022/11/19 02:33:39;;;;;;;1.80;1.70;;;7.10;99.90;;;;;;6111111;23;20210;-71
2022/11/19 02:36:13;;;;;;;2.35;1.80;;;7.10;99.90;;;;;;6144194;23;20205;-71
2022/11/19 02:38:45;;;;;;;1.80;1.70;;;7.10;99.90;;;;;;6145373;23;20265;-72
2022/11/19 02:41:33;;;;;;;2.38;1.40;;;7.10;99.90;;;;;;6147744;23;20261;-71
2022/11/19 02:46:59;;;;;;;3.10;1.90;;;7.10;99.90;;;;;;6138102;23;20191;-71
2022/11/19 02:49:31;;;;;;;1.75;1.63;;;7.10;99.90;;;;;;6133480;23;20675;-71
2022/11/19 02:52:00;;;;;;;1.92;1.60;;;7.00;99.90;;;;;;6136813;23;20222;-71
2022/11/19 02:54:28;;;;;;;1.73;1.63;;;7.00;99.90;;;;;;6148745;23;20190;-71
2022/11/19 02:56:57;;;;;;;1.80;1.70;;;7.00;99.90;;;;;;6137003;23;20584;-71
2022/11/19 03:05:06;;;;;;;3.05;1.67;;;6.90;99.90;;;;;;6144996;23;20206;-71
2022/11/19 03:07:33;;;;;;;2.03;1.92;;;6.90;99.90;;;;;;6146583;23;20198;-71
2022/11/19 03:10:05;;;;;;;1.45;1.35;;;6.90;99.90;;;;;;6147673;23;20190;-71
2022/11/19 03:12:44;;;;;;;1.70;1.30;;;7.00;99.90;;;;;;6134900;23;20521;-71
2022/11/19 03:18:15;;;;;;;2.65;1.55;;;7.00;99.90;;;;;;6149137;23;20727;-71
2022/11/19 03:20:50;;;;;;;1.73;1.40;;;7.00;99.90;;;;;;6148570;23;20195;-71
2022/11/19 03:23:23;;;;;;;1.80;1.60;;;7.10;99.90;;;;;;6145857;23;20209;-71
2022/11/19 03:25:56;;;;;;;3.58;1.52;;;7.10;99.90;;;;;;6144115;23;20195;-71
2022/11/19 03:28:27;;;;;;;1.50;1.40;;;7.10;99.90;;;;;;6135551;23;20214;-71
2022/11/19 03:30:56;;;;;;;1.30;1.20;;;7.10;99.90;;;;;;6147603;23;20506;-71
2022/11/19 03:33:29;;;;;;;1.40;1.30;;;7.10;99.90;;;;;;6127908;23;20191;-71
2022/11/19 03:36:01;;;;;;;1.40;1.30;;;7.10;99.90;;;;;;6130462;23;20202;-71
2022/11/19 03:38:33;;;;;;;1.52;1.23;;;7.10;99.90;;;;;;6129182;23;20203;-71
2022/11/19 03:41:03;;;;;;;1.67;1.20;;;7.20;99.90;;;;;;6143483;23;20221;-71
2022/11/19 03:43:35;;;;;;;1.23;1.13;;;7.20;99.90;;;;;;6132966;23;20248;-71
2022/11/19 03:46:05;;;;;;;1.52;1.42;;;7.20;99.90;;;;;;6145895;23;20201;-70
2022/11/19 03:48:37;;;;;;;1.65;1.52;;;7.20;99.90;;;;;;6149591;23;20198;-71
2022/11/19 03:51:11;;;;;;;2.00;1.17;;;7.40;99.90;;;;;;6143818;23;20191;-70
2022/11/19 03:53:38;;;;;;;2.58;1.48;;;7.30;99.90;;;;;;6133857;23;20194;-71
2022/11/19 03:56:10;;;;;;;1.77;1.40;;;7.20;99.90;;;;;;6127674;23;20203;-71
2022/11/19 03:58:39;;;;;;;2.47;1.70;;;7.30;99.90;;;;;;6146043;23;20207;-71
2022/11/19 04:01:07;;;;;;;1.63;1.52;;;7.30;99.90;;;;;;6143755;23;20247;-71
2022/11/19 04:03:35;;;;;;;1.50;1.40;;;7.30;99.90;;;;;;6148869;23;20201;-71
2022/11/19 04:06:03;;;;;;;1.60;1.50;;;7.40;99.90;;;;;;6141813;23;20249;-71
2022/11/19 04:08:32;;;;;;;2.42;1.60;;;7.40;99.90;;;;;;6143335;23;20205;-71
2022/11/19 04:10:59;;;;;;;2.63;2.10;;;7.40;99.90;;;;;;6136419;23;20203;-71
2022/11/19 04:13:27;;;;;;;1.75;1.65;;;7.40;99.90;;;;;;6141735;23;20197;-71
2022/11/19 04:15:55;;;;;;;2.88;1.70;;;7.40;99.90;;;;;;6147785;23;20317;-71
2022/11/19 04:18:21;;;;;;;2.80;2.05;;;7.40;99.90;;;;;;6146536;23;20253;-71
2022/11/19 04:20:50;;;;;;;3.53;2.00;;;7.30;99.90;;;;;;6144158;23;20274;-70
2022/11/19 04:23:18;;;;;;;1.60;1.50;;;7.30;99.90;;;;;;6139247;23;20198;-70
2022/11/19 04:25:46;;;;;;;2.00;1.80;;;7.20;99.90;;;;;;6136509;23;20222;-71
2022/11/19 04:28:13;;;;;;;3.28;2.45;;;7.20;99.90;;;;;;6120772;23;20636;-71
2022/11/19 04:30:40;;;;;;;2.58;2.08;;;7.20;99.90;;;;;;6147843;23;20201;-70
2022/11/19 04:33:07;;;;;;;1.75;1.65;;;7.10;99.90;;;;;;6147119;23;20218;-71
2022/11/19 04:35:34;;;;;;;1.70;1.60;;;7.10;99.90;;;;;;6138322;23;20324;-71
2022/11/19 04:38:03;;;;;;;1.98;1.50;;;7.20;99.90;;;;;;6139449;23;20210;-70
2022/11/19 04:40:31;;;;;;;2.05;1.70;;;7.10;99.90;;;;;;6132543;23;20198;-71
2022/11/19 04:42:58;;;;;;;1.50;1.40;;;7.20;99.90;;;;;;6138119;23;20489;-70
2022/11/19 04:45:25;;;;;;;2.38;1.75;;;7.20;99.90;;;;;;6138796;23;20224;-71
2022/11/19 04:47:53;;;;;;;3.15;2.05;;;7.20;99.90;;;;;;6140820;23;20222;-71
2022/11/19 04:50:20;;;;;;;1.60;1.50;;;7.20;99.90;;;;;;6137259;23;20218;-71
2022/11/19 04:52:47;;;;;;;2.30;1.85;;;7.20;99.90;;;;;;6146721;23;20213;-71
2022/11/19 04:55:16;;;;;;;2.13;1.92;;;7.20;99.90;;;;;;6140423;23;20218;-71
2022/11/19 04:57:44;;;;;;;2.13;1.92;;;7.20;99.90;;;;;;6138507;23;20502;-71
2022/11/19 05:00:13;;;;;;;2.25;1.90;;;7.20;99.90;;;;;;6147738;23;20194;-71
2022/11/19 05:02:40;;;;;;;3.08;1.90;;;7.20;99.90;;;;;;6146481;23;20190;-71
2022/11/19 05:05:08;;;;;;;2.03;1.90;;;7.20;99.90;;;;;;6142900;23;20197;-71
2022/11/19 05:07:35;;;;;;;2.03;1.83;;;7.30;99.90;;;;;;6146538;23;20199;-70
2022/11/19 05:10:02;;;;;;;2.03;1.83;;;7.20;99.90;;;;;;6146591;23;20271;-71
2022/11/19 05:12:32;;;;;;;2.10;1.90;;;7.30;99.90;;;;;;6128892;23;20228;-71
2022/11/19 05:14:59;;;;;;;2.10;1.90;;;7.30;99.90;;;;;;6127166;23;20556;-71
2022/11/19 05:17:26;;;;;;;2.10;1.90;;;7.30;99.90;;;;;;6144782;23;20245;-71
2022/11/19 05:19:53;;;;;;;2.10;1.90;;;7.30;99.90;;;;;;6134120;23;20307;-71
2022/11/19 05:22:21;;;;;;;3.28;2.20;;;7.30;99.90;;;;;;6147109;23;20607;-71
2022/11/19 05:24:48;;;;;;;1.90;1.50;;;7.30;99.90;;;;;;6133861;23;20216;-70
2022/11/19 05:27:16;;;;;;;2.58;1.85;;;7.30;99.90;;;;;;6136366;23;20266;-71
2022/11/19 05:29:45;;;;;;;2.00;1.80;;;7.30;99.90;;;;;;6145871;23;20916;-71
2022/11/19 05:32:13;;;;;;;2.03;1.92;;;7.30;99.90;;;;;;6132201;23;20510;-71
2022/11/19 05:34:40;;;;;;;2.05;1.90;;;7.40;99.90;;;;;;6143051;23;20207;-71
2022/11/19 05:37:07;;;;;;;1.90;1.80;;;7.40;99.90;;;;;;6132214;23;20783;-71
2022/11/19 05:39:34;;;;;;;2.83;1.80;;;7.40;99.90;;;;;;6123501;23;20612;-71
2022/11/19 05:42:02;;;;;;;1.80;1.70;;;7.40;99.90;;;;;;6126669;23;20726;-70
2022/11/19 05:44:29;;;;;;;2.58;1.60;;;7.30;99.90;;;;;;6140227;23;20275;-70
2022/11/19 05:46:58;;;;;;;2.20;1.85;;;7.30;99.90;;;;;;6128845;23;20191;-71
2022/11/19 05:49:25;;;;;;;2.83;2.00;;;7.30;99.90;;;;;;6136371;23;20190;-71
2022/11/19 05:51:52;;;;;;;2.05;1.85;;;7.30;99.90;;;;;;6133868;23;20675;-71
2022/11/19 05:54:19;;;;;;;2.22;1.80;;;7.30;99.90;;;;;;6131382;23;20203;-71
2022/11/19 05:56:47;;;;;;;2.10;1.98;;;7.30;99.90;;;;;;6148774;23;20619;-70
2022/11/19 05:59:16;;;;;;;2.05;1.95;;;7.30;99.90;;;;;;6134639;23;20316;-71
2022/11/19 06:01:43;;;;;;;2.17;1.98;;;7.30;99.90;;;;;;6148532;23;20195;-71
2022/11/19 06:04:11;;;;;;;2.17;1.98;;;7.30;99.90;;;;;;6143970;23;20611;-71
2022/11/19 06:06:38;;;;;;;1.83;1.73;;;7.30;99.90;;;;;;6146951;23;20357;-70
2022/11/19 06:09:07;;;;;;;2.22;1.75;;;7.30;99.90;;;;;;6140433;23;20697;-71
2022/11/19 06:11:49;;;;;;;2.40;1.73;;;7.30;99.90;;;;;;6132204;23;20190;-71
2022/11/19 06:14:20;;;;;;;2.22;1.67;;;7.30;99.90;;;;;;6137057;23;20205;-71
2022/11/19 06:16:47;;;;;;;2.30;1.90;;;7.40;99.90;;;;;;6125114;23;20230;-71
2022/11/19 06:19:17;;;;;;;2.95;1.75;;;7.40;99.90;;;;;;6137327;23;20223;-71
2022/11/19 06:21:44;;;;;;;2.22;1.70;;;7.40;99.90;;;;;;6148599;23;20210;-71
2022/11/19 06:24:11;;;;;;;3.20;1.90;;;7.50;99.90;;;;;;6145557;23;20195;-70
2022/11/19 06:26:40;;;;;;;2.20;1.80;;;7.50;99.90;;;;;;6140100;23;20671;-70
2022/11/19 06:29:09;;;;;;;1.70;1.52;;;7.40;99.90;;;;;;6137509;23;20643;-71
2022/11/19 06:31:36;;;;;;;2.13;1.55;;;7.50;99.90;;;;;;6121060;23;20191;-71
2022/11/19 06:34:03;;;;;;;2.22;1.80;;;7.40;99.90;;;;;;6131522;23;20202;-71
2022/11/19 06:36:32;;;;;;;2.65;2.00;;;7.40;99.90;;;;;;6133445;23;20271;-71
2022/11/19 06:38:59;;;;;;;2.40;1.98;;;7.40;99.90;;;;;;6137587;23;20697;-71
2022/11/19 06:41:26;;;;;;;2.22;2.03;;;7.40;99.90;;;;;;6132955;23;20278;-71
2022/11/19 06:43:53;;;;;;;2.30;2.10;;;7.40;99.90;;;;;;6150344;23;20191;-71
2022/11/19 06:46:21;;;;;;;1.70;1.60;;;7.40;99.90;;;;;;6145380;23;20202;-71
2022/11/19 06:48:49;;;;;;;2.50;2.30;;;7.40;99.90;;;;;;6148506;23;20211;-71
2022/11/19 06:51:16;;;;;;;4.07;2.38;;;7.30;99.90;;;;;;6138500;23;20191;-71
2022/11/19 06:53:45;;;;;;;1.90;1.80;;;7.30;99.90;;;;;;6129429;23;20273;-70
2022/11/19 06:56:12;;;;;;;2.17;1.98;;;7.30;99.90;;;;;;6138028;23;20279;-72
2022/11/19 06:58:39;;;;;;;2.28;2.08;;;7.30;99.90;;;;;;6145753;23;20301;-71
2022/11/19 07:01:06;;;;;;;2.03;1.92;;;7.20;99.90;;;;;;6134345;23;20241;-71
2022/11/19 07:03:34;;;;;;;2.55;1.65;;;7.30;99.90;;;;;;6124934;23;20195;-71
2022/11/19 07:06:03;;;;;;;3.38;2.20;;;7.30;99.90;;;;;;6143709;23;20202;-71
2022/11/19 07:08:33;;;;;;;2.70;2.05;;;7.20;99.90;;;;;;6139106;23;20203;-71
2022/11/19 07:11:24;;;;;;;2.20;2.05;;;7.20;99.90;;;;;;6142792;23;20229;-71
2022/11/19 07:13:57;;;;;;;2.03;1.83;;;7.20;99.90;;;;;;6125883;23;20611;-71
2022/11/19 07:16:27;;;;;;;1.77;1.60;;;7.20;99.90;;;;;;6142689;23;20492;-71
2022/11/19 07:18:56;;;;;;;2.40;2.20;;;7.20;99.90;;;;;;6148229;23;20218;-71
2022/11/19 07:21:24;;;;;;;3.28;2.28;;;7.20;99.90;;;;;;6142840;23;20199;-71
2022/11/19 07:23:51;;;;;;;2.13;2.03;;;7.20;99.90;;;;;;6126172;23;20230;-70
2022/11/19 07:26:20;;;;;;;3.00;2.40;;;7.10;99.90;;;;;;6147900;23;20632;-70
2022/11/19 07:28:47;;;;;;;2.30;1.75;;;7.20;99.90;;;;;;6142286;23;20619;-71
2022/11/19 07:31:14;;;;;;;2.75;2.40;;;7.20;99.90;;;;;;6145101;23;20381;-71
2022/11/19 07:33:41;;;;;;;2.20;2.00;;;7.20;99.90;;;;;;6128880;23;20210;-71
2022/11/19 07:36:10;;;;;;;2.40;2.20;;;7.20;99.90;;;;;;6145441;23;20214;-71
2022/11/19 07:38:37;;;;;;;3.85;2.05;;;7.30;99.90;;;;;;6134330;23;20337;-70
2022/11/19 07:42:47;;;;;;;2.40;2.20;;;7.30;99.90;;;;;;6140053;23;20183;-71
2022/11/19 07:43:54;;;;;;;2.40;2.20;;;7.30;99.90;;;;;;6128840;23;20198;-71
2022/11/19 07:46:22;;;;;;;2.00;1.90;;;7.40;99.90;;;;;;6133701;23;20195;-71
2022/11/19 07:48:54;;;;;;;2.55;2.13;;;7.50;99.90;;;;;;6127219;23;20185;-71
2022/11/19 07:51:21;;;;;;;2.05;1.90;;;7.50;99.90;;;;;;6137298;23;20262;-71
2022/11/19 07:53:50;;;;;;;2.72;1.98;;;7.50;99.90;;;;;;6141739;23;20674;-71
2022/11/19 07:56:18;;;;;;;3.47;2.10;;;7.60;99.90;;;;;;6155363;23;20200;-71
2022/11/19 07:58:47;;;;;;;2.10;1.88;;;7.60;99.90;;;;;;6137374;23;20224;-71
2022/11/19 08:01:17;;;;;;;2.20;1.90;;;7.60;99.90;;;;;;6143904;23;20183;-71
2022/11/19 08:03:46;;;;;;;2.67;2.47;;;7.70;99.90;;;;;;6122820;23;20231;-71
2022/11/19 08:06:15;;;;;;;3.30;3.10;;;7.70;99.90;;;;;;6144871;23;20235;-71
2022/11/19 08:08:42;;;;;;;3.40;3.15;;;7.80;99.90;;;;;;6136515;23;20195;-71
2022/11/19 08:11:11;;;;;;;3.63;3.33;;;7.80;99.90;;;;;;6148644;23;20193;-71
2022/11/19 08:13:39;;;;;;;3.60;3.30;;;7.80;99.90;;;;;;6127800;23;20535;-71
2022/11/19 08:16:09;;;;;;;4.10;3.80;;;7.90;99.90;;;;;;6136075;23;20200;-72
2022/11/19 08:18:37;;;;;;;4.90;4.50;;;7.90;99.90;;;;;;6127772;23;20284;-71
2022/11/19 08:21:06;;;;;;;4.80;4.40;;;8.00;99.90;;;;;;6137280;23;20209;-71
2022/11/19 08:23:34;;;;;;;4.28;3.97;;;8.00;99.90;;;;;;6133683;23;20201;-71
2022/11/19 08:26:02;;;;;;;3.40;3.20;;;8.10;99.90;;;;;;6144692;23;20666;-71
2022/11/19 08:28:29;;;;;;;3.22;3.03;;;8.30;99.90;;;;;;6145378;23;20246;-71
2022/11/19 08:30:57;;;;;;;2.55;2.45;;;8.50;99.90;;;;;;6124652;23;20273;-71
2022/11/19 08:33:24;;;;;;;2.65;2.20;;;8.70;99.90;;;;;;6110037;23;20195;-70
2022/11/19 08:35:56;;;;;;;2.40;2.22;;;9.10;99.90;;;;;;6138994;23;20663;-72
2022/11/19 08:38:23;;;;;;;1.70;1.60;;;9.60;99.90;;;;;;6128323;23;20239;-71
2022/11/19 08:40:52;;;;;;;1.65;1.55;;;9.80;99.90;;;;;;6141022;23;20230;-71
2022/11/19 08:43:19;;;;;;;1.40;1.30;;;10.10;99.90;;;;;;6149329;23;20586;-71
2022/11/19 08:45:52;;;;;;;1.40;1.30;;;10.70;99.90;;;;;;6143647;23;20191;-71
2022/11/19 08:48:20;;;;;;;1.70;1.60;;;11.20;99.90;;;;;;6139063;23;20190;-71
2022/11/19 08:50:47;;;;;;;2.70;1.70;;;11.10;99.90;;;;;;6143538;23;20190;-71
2022/11/19 08:53:15;;;;;;;2.60;1.65;;;11.10;99.90;;;;;;6127191;23;20199;-71
2022/11/19 08:55:43;;;;;;;1.90;1.70;;;10.80;99.90;;;;;;6136856;23;20251;-71
2022/11/19 08:58:11;;;;;;;2.03;1.90;;;10.60;99.90;;;;;;6141226;23;20226;-76
2022/11/19 09:00:38;;;;;;;2.70;1.90;;;10.50;99.90;;;;;;6134980;23;20253;-71
2022/11/19 09:03:05;;;;;;;1.95;1.75;;;10.40;99.90;;;;;;6137184;23;20614;-71
2022/11/19 09:05:34;;;;;;;1.73;1.63;;;10.50;99.90;;;;;;6145163;23;20214;-73
2022/11/19 09:08:01;;;;;;;1.75;1.65;;;10.60;99.90;;;;;;6141659;23;20215;-71
2022/11/19 09:10:29;;;;;;;2.45;1.95;;;10.50;99.90;;;;;;6141604;23;20179;-70
2022/11/19 09:12:56;;;;;;;2.10;1.90;;;10.50;99.90;;;;;;6133524;23;20214;-73
2022/11/19 09:15:24;;;;;;;2.40;2.30;;;10.40;99.90;;;;;;6135312;23;20432;-75
2022/11/19 09:17:52;;;;;;;2.10;1.90;;;10.30;99.90;;;;;;6119009;23;20262;-73
2022/11/19 09:20:21;;;;;;;2.85;2.20;;;10.20;99.90;;;;;;6146287;23;20213;-74
2022/11/19 09:22:48;;;;;;;2.50;2.00;;;10.40;99.90;;;;;;6137575;23;20199;-76
2022/11/19 09:25:16;;;;;;;2.20;2.10;;;10.00;99.90;;;;;;6114914;23;20191;-75
2022/11/19 09:27:44;;;;;;;2.40;2.22;;;9.80;99.90;;;;;;6151537;23;20190;-74
2022/11/19 09:30:13;;;;;;;2.35;2.15;;;9.70;99.90;;;;;;6154420;23;20199;-75
2022/11/19 09:32:40;;;;;;;2.58;2.38;;;9.60;99.90;;;;;;6148560;23;20187;-75
2022/11/19 09:35:08;;;;;;;2.53;2.33;;;9.50;99.90;;;;;;6110566;23;20249;-74
2022/11/19 09:37:35;;;;;;;2.85;2.40;;;9.40;99.90;;;;;;6139261;23;20273;-75
2022/11/19 09:40:03;;;;;;;2.42;2.20;;;9.40;99.90;;;;;;6136471;23;20711;-75
2022/11/19 09:42:39;;;;;;;2.60;2.30;;;9.30;99.90;;;;;;6142679;23;20240;-75
2022/11/19 09:45:19;;;;;;;2.50;2.20;;;9.30;99.90;;;;;;6126189;23;20218;-74
2022/11/19 09:48:05;;;;;;;2.80;2.60;;;9.30;99.90;;;;;;6132774;23;20269;-74
2022/11/19 09:50:47;;;;;;;2.00;1.90;;;9.30;99.90;;;;;;6133365;23;20196;-75
2022/11/19 09:53:18;;;;;;;2.83;2.63;;;9.20;99.90;;;;;;6129954;23;20206;-74
2022/11/19 09:55:47;;;;;;;2.70;2.17;;;9.30;99.90;;;;;;6104881;23;20261;-74
2022/11/19 09:58:20;;;;;;;2.63;2.30;;;9.20;99.90;;;;;;6123732;23;20198;-74
2022/11/19 10:00:50;;;;;;;2.40;2.20;;;9.20;99.90;;;;;;6125324;23;20318;-74
2022/11/19 10:03:21;;;;;;;2.00;1.90;;;9.30;99.90;;;;;;6132152;23;20219;-74
2022/11/19 10:06:02;;;;;;;2.80;2.60;;;9.40;99.90;;;;;;6121127;23;20191;-74
2022/11/19 10:08:43;;;;;;;2.03;1.92;;;9.50;99.90;;;;;;6139256;23;20198;-76
2022/11/19 10:11:25;;;;;;;2.15;1.95;;;9.60;99.90;;;;;;6141865;23;20273;-75
2022/11/19 10:14:01;;;;;;;3.83;2.83;;;9.60;99.90;;;;;;6138337;23;20193;-74
2022/11/19 10:16:49;;;;;;;2.70;2.50;;;9.60;99.90;;;;;;6148348;23;20269;-74
2022/11/19 10:19:40;;;;;;;2.70;2.50;;;9.50;99.90;;;;;;6149790;23;20607;-74
2022/11/19 10:22:11;;;;;;;2.17;2.03;;;9.50;99.90;;;;;;6150301;23;20191;-74
2022/11/19 10:24:42;;;;;;;2.65;2.15;;;9.50;99.90;;;;;;6148059;23;20186;-74
2022/11/19 10:27:19;;;;;;;5.25;2.17;;;9.50;99.90;;;;;;6145565;23;20240;-74
2022/11/19 10:29:47;;;;;;;2.35;2.00;;;9.70;99.90;;;;;;6121337;23;20193;-74
2022/11/19 10:32:24;;;;;;;1.98;1.88;;;9.70;99.90;;;;;;6120798;23;20652;-74
2022/11/19 10:34:57;;;;;;;3.35;2.33;;;9.70;99.90;;;;;;6147533;23;20222;-74
2022/11/19 10:37:30;;;;;;;3.35;2.00;;;9.60;99.90;;;;;;6118845;23;20223;-75
2022/11/19 10:40:02;;;;;;;2.95;2.30;;;9.70;99.90;;;;;;6120764;23;20246;-74
2022/11/19 10:42:35;;;;;;;2.08;1.95;;;9.60;99.90;;;;;;6124927;23;20191;-74
2022/11/19 10:45:06;;;;;;;2.90;2.00;;;9.60;99.90;;;;;;6146685;23;20197;-75
2022/11/19 10:47:46;;;;;;;3.83;2.45;;;9.60;99.90;;;;;;6144640;23;20274;-76
2022/11/19 10:50:17;;;;;;;3.20;2.63;;;9.50;99.90;;;;;;6123671;23;20183;-75
2022/11/19 10:52:48;;;;;;;2.30;2.10;;;9.50;99.90;;;;;;6150266;23;20206;-75
2022/11/19 10:55:19;;;;;;;4.00;1.80;;;9.50;99.90;;;;;;6141338;23;20273;-75
2022/11/19 10:57:49;;;;;;;3.88;2.00;;;9.40;99.90;;;;;;6134308;23;20198;-76
2022/11/19 11:00:17;;;;;;;2.50;1.90;;;9.40;99.90;;;;;;6111328;23;20277;-76
2022/11/19 11:02:50;;;;;;;1.95;1.75;;;9.30;99.90;;;;;;6147379;23;20274;-76
2022/11/19 11:05:18;;;;;;;2.17;1.92;;;9.30;99.90;;;;;;6146378;23;20200;-76
2022/11/19 11:07:48;;;;;;;2.85;2.00;;;9.30;99.90;;;;;;6149777;23;20213;-76
2022/11/19 11:10:33;;;;;;;3.22;2.05;;;9.20;99.90;;;;;;6123787;23;20268;-76
2022/11/19 11:16:11;;;;;;;2.95;2.00;;;9.20;99.90;;;;;;6134714;23;20194;-76
2022/11/19 11:18:40;;;;;;;1.88;1.70;;;9.10;99.90;;;;;;6147639;23;20239;-76
2022/11/19 11:21:12;;;;;;;2.13;1.90;;;9.10;99.90;;;;;;6127236;23;20214;-76
2022/11/19 11:23:50;;;;;;;1.90;1.65;;;9.00;99.90;;;;;;6148782;23;20214;-75
2022/11/19 11:26:23;;;;;;;3.83;1.73;;;9.00;99.90;;;;;;6149010;23;20186;-76
2022/11/19 11:29:03;;;;;;;3.22;2.30;;;9.00;99.90;;;;;;6146714;23;20649;-76
2022/11/19 11:31:36;;;;;;;2.30;2.00;;;9.10;99.90;;;;;;6142173;23;20268;-75
2022/11/19 11:34:13;;;;;;;3.15;1.75;;;9.10;99.90;;;;;;6121795;23;20222;-76
2022/11/19 11:36:41;;;;;;;2.75;1.98;;;9.10;99.90;;;;;;6123106;23;20291;-75
2022/11/19 11:39:25;;;;;;;3.67;2.10;;;9.10;99.90;;;;;;6149771;23;20597;-75
2022/11/19 11:41:52;;;;;;;2.90;2.08;;;9.10;99.90;;;;;;6149865;23;20300;-75
2022/11/19 11:44:24;;;;;;;2.33;1.95;;;9.10;99.90;;;;;;6144058;23;20202;-76
2022/11/19 11:46:53;;;;;;;2.33;2.10;;;9.10;99.90;;;;;;6113475;23;20198;-77
2022/11/19 11:49:33;;;;;;;3.90;1.80;;;9.10;99.90;;;;;;6151940;23;20193;-76
2022/11/19 11:52:18;;;;;;;4.00;2.10;;;9.00;99.90;;;;;;6127399;23;20179;-77
2022/11/19 11:55:00;;;;;;;2.78;1.85;;;9.00;99.90;;;;;;6141473;23;20199;-75
2022/11/19 11:57:29;;;;;;;1.92;1.60;;;9.00;99.90;;;;;;6147018;23;20190;-75
2022/11/19 11:59:58;;;;;;;2.47;1.80;;;9.00;99.90;;;;;;6138768;23;20227;-75
2022/11/19 12:02:28;;;;;;;4.50;1.70;;;9.10;99.90;;;;;;6146380;23;20272;-75
2022/11/19 12:05:00;;;;;;;2.15;1.95;;;9.00;99.90;;;;;;6146869;23;20194;-75
2022/11/19 12:07:46;;;;;;;2.30;1.83;;;9.00;99.90;;;;;;6148780;23;20197;-75
2022/11/19 12:10:28;;;;;;;3.42;1.80;;;9.00;99.90;;;;;;6149376;23;20191;-75
2022/11/19 12:13:23;;;;;;;2.15;1.88;;;8.90;99.90;;;;;;6148784;23;20202;-75
2022/11/19 12:15:59;;;;;;;2.45;1.67;;;8.90;99.90;;;;;;6144005;23;20606;-75
2022/11/19 12:18:37;;;;;;;2.83;2.08;;;9.00;99.90;;;;;;6147699;23;20370;-75
2022/11/19 12:21:10;;;;;;;2.40;1.90;;;8.90;99.90;;;;;;6148874;23;20209;-75
2022/11/19 12:23:58;;;;;;;2.72;1.83;;;8.90;99.90;;;;;;6144624;23;20280;-76
2022/11/19 12:26:38;;;;;;;2.53;1.80;;;8.90;99.90;;;;;;6114973;23;20613;-77
2022/11/19 12:29:21;;;;;;;2.17;1.98;;;8.80;99.90;;;;;;6108841;23;20279;-76
2022/11/19 12:32:02;;;;;;;3.38;2.10;;;8.80;99.90;;;;;;6139434;23;20190;-75
2022/11/19 12:34:51;;;;;;;2.25;1.90;;;8.70;99.90;;;;;;6139631;23;20217;-80
2022/11/19 12:37:36;;;;;;;2.40;2.20;;;8.60;99.90;;;;;;6110497;23;20211;-76
2022/11/19 12:40:16;;;;;;;3.03;2.20;;;8.60;99.90;;;;;;6128648;23;20280;-76
2022/11/19 12:42:53;;;;;;;3.13;2.70;;;8.60;99.90;;;;;;6123923;23;20189;-77
2022/11/19 12:45:29;;;;;;;3.10;2.42;;;8.60;99.90;;;;;;6130819;23;20184;-77
2022/11/19 12:48:25;;;;;;;2.58;2.17;;;8.70;99.90;;;;;;6134191;23;20219;-76
2022/11/19 12:50:59;;;;;;;2.47;2.25;;;8.70;99.90;;;;;;6129701;23;20193;-77
2022/11/19 12:53:50;;;;;;;3.53;2.53;;;8.70;99.90;;;;;;6130642;23;21136;-77
2022/11/19 12:56:31;;;;;;;2.50;2.30;;;8.70;99.90;;;;;;6133708;23;20185;-76
2022/11/19 12:59:10;;;;;;;3.20;2.58;;;8.80;99.90;;;;;;6130595;23;20247;-76
2022/11/19 13:01:43;;;;;;;3.38;3.08;;;8.80;99.90;;;;;;6142546;23;20682;-76
2022/11/19 13:04:16;;;;;;;2.78;2.40;;;8.80;99.90;;;;;;6129363;23;20190;-76
2022/11/19 13:06:50;;;;;;;2.70;2.50;;;8.80;99.90;;;;;;6142938;23;20196;-76
2022/11/19 13:09:23;;;;;;;2.78;2.50;;;8.80;99.90;;;;;;6133089;23;20190;-76
2022/11/19 13:12:12;;;;;;;2.70;2.50;;;8.70;99.90;;;;;;6121231;23;20231;-77
2022/11/19 13:14:42;;;;;;;3.72;2.53;;;8.70;99.90;;;;;;6136485;23;20510;-77
2022/11/19 13:17:17;;;;;;;4.75;2.80;;;8.70;99.90;;;;;;6132088;23;20186;-77
2022/11/19 13:19:48;;;;;;;4.00;3.42;;;8.70;99.90;;;;;;6125145;23;20249;-76
2022/11/19 13:22:19;;;;;;;3.22;2.88;;;8.70;99.90;;;;;;6142141;23;20207;-76
2022/11/19 13:24:53;;;;;;;3.40;2.90;;;8.80;99.90;;;;;;6136123;23;20240;-76
2022/11/19 13:27:25;;;;;;;3.17;2.92;;;8.80;99.90;;;;;;6119532;23;20509;-76
2022/11/19 13:29:59;;;;;;;2.60;2.40;;;8.90;99.90;;;;;;6144229;23;20186;-76
2022/11/19 13:32:30;;;;;;;3.08;2.78;;;8.90;99.90;;;;;;6144437;23;20276;-76
2022/11/19 13:35:10;;;;;;;2.90;2.25;;;9.00;99.90;;;;;;6115017;23;20186;-77